createdAt,value
2022-08-27T00:00:36.828Z,42.30
2022-08-27T00:01:36.586Z,41.56
2022-08-27T00:02:36.525Z,41.86
2022-08-27T00:03:36.515Z,39.43
2022-08-27T00:04:36.562Z,40.84
2022-08-27T00:05:36.503Z,49.00
2022-08-27T00:06:36.762Z,41.40
2022-08-27T00:07:36.482Z,39.90
2022-08-27T00:08:36.464Z,40.79
2022-08-27T00:09:36.459Z,45.01
2022-08-27T00:10:36.442Z,43.40
2022-08-27T00:11:36.456Z,41.07
2022-08-27T00:12:36.426Z,39.73
2022-08-27T00:13:36.453Z,40.64
2022-08-27T00:14:36.403Z,41.19
2022-08-27T00:15:36.427Z,43.28
2022-08-27T00:16:36.443Z,43.36
2022-08-27T00:17:36.374Z,47.07
2022-08-27T00:18:36.361Z,46.89
2022-08-27T00:19:36.364Z,46.50
2022-08-27T00:20:36.349Z,41.64
2022-08-27T00:21:36.353Z,41.39
2022-08-27T00:22:36.329Z,41.77
2022-08-27T00:23:36.325Z,42.11
2022-08-27T00:24:36.309Z,41.93
2022-08-27T00:25:37.305Z,39.18
2022-08-27T00:26:40.173Z,40.86
2022-08-27T00:27:37.282Z,41.43
2022-08-27T00:28:36.454Z,41.85
2022-08-27T00:29:36.260Z,42.27
2022-08-27T00:30:36.259Z,42.27
2022-08-27T00:31:36.341Z,41.14
2022-08-27T00:32:36.229Z,40.97
2022-08-27T00:33:36.222Z,41.92
2022-08-27T00:34:36.210Z,41.94
2022-08-27T00:35:36.206Z,42.60
2022-08-27T00:36:36.200Z,40.70
2022-08-27T00:37:36.177Z,41.70
2022-08-27T00:38:36.170Z,41.86
2022-08-27T00:39:36.163Z,42.16
2022-08-27T00:40:36.189Z,42.18
2022-08-27T00:41:36.179Z,43.14
2022-08-27T00:42:36.129Z,44.08
2022-08-27T00:43:36.119Z,41.15
2022-08-27T00:44:36.105Z,40.27
2022-08-27T00:45:36.119Z,40.83
2022-08-27T00:46:36.126Z,41.63
2022-08-27T00:47:36.086Z,43.41
2022-08-27T00:48:36.064Z,48.67
2022-08-27T00:49:36.065Z,42.16
2022-08-27T00:50:36.046Z,41.98
2022-08-27T00:51:36.036Z,40.98
2022-08-27T00:52:36.041Z,40.44
2022-08-27T00:53:36.017Z,41.54
2022-08-27T00:54:36.011Z,41.50
2022-08-27T00:55:35.993Z,41.33
2022-08-27T00:56:36.120Z,47.27
2022-08-27T00:57:35.996Z,43.67
2022-08-27T00:58:35.971Z,42.75
2022-08-27T00:59:35.960Z,39.90
2022-08-27T01:00:35.983Z,38.74
2022-08-27T01:01:36.073Z,39.61
2022-08-27T01:02:36.023Z,41.25
2022-08-27T01:03:35.923Z,41.43
2022-08-27T01:04:35.916Z,41.58
2022-08-27T01:05:35.904Z,41.81
2022-08-27T01:06:35.896Z,41.53
2022-08-27T01:07:35.894Z,41.49
2022-08-27T01:08:35.875Z,41.00
2022-08-27T01:09:35.862Z,43.94
2022-08-27T01:10:35.861Z,39.53
2022-08-27T01:11:35.853Z,41.52
2022-08-27T01:12:36.054Z,41.99
2022-08-27T01:13:54.050Z,41.80
2022-08-27T01:14:36.824Z,41.71
2022-08-27T01:15:35.814Z,41.89
2022-08-27T01:16:35.877Z,46.51
2022-08-27T01:17:35.797Z,43.74
2022-08-27T01:18:35.801Z,41.51
2022-08-27T01:19:35.771Z,47.17
2022-08-27T01:20:35.767Z,41.77
2022-08-27T01:21:35.867Z,39.99
2022-08-27T01:22:35.768Z,41.64
2022-08-27T01:23:35.737Z,41.69
2022-08-27T01:24:35.841Z,41.84
2022-08-27T01:25:35.717Z,41.74
2022-08-27T01:26:35.710Z,39.17
2022-08-27T01:27:35.720Z,41.60
2022-08-27T01:28:37.555Z,41.54
2022-08-27T01:29:35.680Z,41.73
2022-08-27T01:30:35.668Z,41.90
2022-08-27T01:31:35.689Z,39.94
2022-08-27T01:32:35.691Z,41.82
2022-08-27T01:33:35.637Z,43.74
2022-08-27T01:34:35.634Z,41.30
2022-08-27T01:35:35.622Z,40.16
2022-08-27T01:36:35.611Z,41.40
2022-08-27T01:37:35.617Z,41.83
2022-08-27T01:38:35.591Z,41.80
2022-08-27T01:39:35.577Z,40.36
2022-08-27T01:40:35.609Z,41.51
2022-08-27T01:41:35.558Z,41.77
2022-08-27T01:42:35.559Z,41.56
2022-08-27T01:43:35.729Z,41.25
2022-08-27T01:44:35.526Z,41.77
2022-08-27T01:45:35.522Z,41.15
2022-08-27T01:46:35.528Z,40.60
2022-08-27T01:47:35.515Z,41.51
2022-08-27T01:48:35.724Z,41.44
2022-08-27T01:49:35.490Z,40.98
2022-08-27T01:50:35.480Z,41.39
2022-08-27T01:51:35.463Z,41.66
2022-08-27T01:52:35.473Z,41.74
2022-08-27T01:53:35.447Z,41.61
2022-08-27T01:54:35.436Z,41.57
2022-08-27T01:55:35.421Z,39.83
2022-08-27T01:56:35.416Z,40.34
2022-08-27T01:57:35.416Z,43.58
2022-08-27T01:58:35.402Z,43.16
2022-08-27T01:59:39.668Z,41.88
2022-08-27T02:00:35.409Z,40.31
2022-08-27T02:01:35.533Z,41.74
2022-08-27T02:02:35.351Z,41.89
2022-08-27T02:03:35.342Z,48.01
2022-08-27T02:04:35.334Z,41.66
2022-08-27T02:05:43.814Z,45.50
2022-08-27T02:06:36.330Z,41.33
2022-08-27T02:07:35.306Z,45.54
2022-08-27T02:08:35.301Z,41.31
2022-08-27T02:09:35.287Z,47.58
2022-08-27T02:10:35.281Z,43.91
2022-08-27T02:11:35.277Z,42.10
2022-08-27T02:12:36.258Z,42.26
2022-08-27T02:13:35.244Z,41.99
2022-08-27T02:14:35.238Z,41.72
2022-08-27T02:15:35.231Z,39.04
2022-08-27T02:16:35.285Z,46.94
2022-08-27T02:17:36.381Z,42.18
2022-08-27T02:18:35.236Z,41.73
2022-08-27T02:19:35.191Z,42.05
2022-08-27T02:20:35.188Z,41.84
2022-08-27T02:21:35.182Z,41.50
2022-08-27T02:22:35.165Z,39.79
2022-08-27T02:23:35.153Z,40.51
2022-08-27T02:24:35.145Z,41.77
2022-08-27T02:25:35.130Z,41.86
2022-08-27T02:26:35.138Z,41.95
2022-08-27T02:27:35.110Z,41.81
2022-08-27T02:28:35.104Z,41.40
2022-08-27T02:29:35.094Z,39.55
2022-08-27T02:30:35.091Z,39.24
2022-08-27T02:31:35.122Z,41.39
2022-08-27T02:32:35.063Z,41.58
2022-08-27T02:33:35.051Z,42.22
2022-08-27T02:34:35.046Z,44.51
2022-08-27T02:35:35.263Z,42.28
2022-08-27T02:36:35.040Z,42.07
2022-08-27T02:37:35.012Z,40.63
2022-08-27T02:38:35.007Z,39.99
2022-08-27T02:39:34.995Z,41.32
2022-08-27T02:40:35.054Z,41.49
2022-08-27T02:41:34.991Z,41.77
2022-08-27T02:42:34.967Z,44.70
2022-08-27T02:43:34.955Z,42.03
2022-08-27T02:44:34.947Z,41.55
2022-08-27T02:45:35.527Z,38.96
2022-08-27T02:46:35.169Z,39.72
2022-08-27T02:47:34.920Z,40.89
2022-08-27T02:48:34.912Z,41.34
2022-08-27T02:49:34.893Z,41.52
2022-08-27T02:50:34.891Z,42.14
2022-08-27T02:51:34.890Z,42.05
2022-08-27T02:52:34.880Z,45.13
2022-08-27T02:53:34.858Z,41.00
2022-08-27T02:54:34.853Z,40.92
2022-08-27T02:55:34.843Z,41.42
2022-08-27T02:56:34.845Z,44.75
2022-08-27T02:57:36.625Z,41.81
2022-08-27T02:58:34.833Z,41.95
2022-08-27T02:59:34.799Z,41.78
2022-08-27T03:00:34.794Z,39.24
2022-08-27T03:01:34.865Z,46.92
2022-08-27T03:02:34.915Z,41.00
2022-08-27T03:03:34.763Z,41.96
2022-08-27T03:04:34.957Z,48.84
2022-08-27T03:05:34.744Z,42.20
2022-08-27T03:06:34.750Z,47.60
2022-08-27T03:07:34.953Z,41.98
2022-08-27T03:08:52.018Z,45.24
2022-08-27T03:09:35.734Z,41.37
2022-08-27T03:10:34.696Z,44.01
2022-08-27T03:11:34.699Z,45.34
2022-08-27T03:12:34.880Z,41.52
2022-08-27T03:13:34.666Z,41.37
2022-08-27T03:14:34.798Z,41.68
2022-08-27T03:15:34.649Z,47.50
2022-08-27T03:16:34.657Z,41.45
2022-08-27T03:17:34.632Z,40.47
2022-08-27T03:18:34.625Z,47.93
2022-08-27T03:19:34.612Z,45.42
2022-08-27T03:20:34.604Z,41.49
2022-08-27T03:21:34.609Z,43.33
2022-08-27T03:22:34.588Z,44.79
2022-08-27T03:23:34.782Z,41.48
2022-08-27T03:24:34.567Z,41.81
2022-08-27T03:25:34.639Z,47.65
2022-08-27T03:26:34.562Z,46.40
2022-08-27T03:27:34.531Z,40.45
2022-08-27T03:28:34.527Z,40.66
2022-08-27T03:29:34.515Z,44.52
2022-08-27T03:30:34.507Z,41.48
2022-08-27T03:31:34.535Z,41.75
2022-08-27T03:32:34.491Z,42.02
2022-08-27T03:33:34.473Z,44.53
2022-08-27T03:34:34.461Z,39.57
2022-08-27T03:35:34.466Z,47.95
2022-08-27T03:36:34.465Z,47.23
2022-08-27T03:37:34.437Z,42.41
2022-08-27T03:38:34.432Z,41.74
2022-08-27T03:39:34.415Z,41.69
2022-08-27T03:40:34.675Z,45.54
2022-08-27T03:41:45.456Z,47.83
2022-08-27T03:42:35.390Z,43.55
2022-08-27T03:43:34.388Z,40.90
2022-08-27T03:44:34.533Z,41.45
2022-08-27T03:45:48.440Z,41.99
2022-08-27T03:46:35.385Z,42.07
2022-08-27T03:47:34.341Z,41.76
2022-08-27T03:48:34.331Z,42.03
2022-08-27T03:49:34.315Z,39.81
2022-08-27T03:50:34.313Z,46.02
2022-08-27T03:51:34.315Z,44.10
2022-08-27T03:52:34.293Z,47.20
2022-08-27T03:53:34.284Z,44.69
2022-08-27T03:54:34.277Z,45.05
2022-08-27T03:55:34.258Z,47.63
2022-08-27T03:56:34.377Z,45.48
2022-08-27T03:57:34.244Z,44.39
2022-08-27T03:58:34.255Z,45.66
2022-08-27T03:59:34.226Z,43.84
2022-08-27T04:00:34.220Z,43.92
2022-08-27T04:01:34.339Z,44.24
2022-08-27T04:02:34.222Z,48.62
2022-08-27T04:03:34.185Z,50.12
2022-08-27T04:04:34.179Z,47.04
2022-08-27T04:05:34.168Z,45.30
2022-08-27T04:06:34.356Z,47.55
2022-08-27T04:07:34.161Z,43.70
2022-08-27T04:08:34.138Z,50.63
2022-08-27T04:09:34.128Z,46.54
2022-08-27T04:10:34.980Z,48.12
2022-08-27T04:11:34.209Z,46.29
2022-08-27T04:12:34.112Z,46.27
2022-08-27T04:13:34.089Z,46.70
2022-08-27T04:14:34.140Z,44.63
2022-08-27T04:15:34.066Z,49.15
2022-08-27T04:16:34.083Z,47.75
2022-08-27T04:17:34.061Z,48.74
2022-08-27T04:18:34.035Z,46.55
2022-08-27T04:19:34.023Z,51.46
2022-08-27T04:20:35.696Z,50.54
2022-08-27T04:21:34.043Z,44.83
2022-08-27T04:22:34.011Z,44.93
2022-08-27T04:23:34.204Z,43.88
2022-08-27T04:24:33.975Z,44.45
2022-08-27T04:25:33.966Z,43.56
2022-08-27T04:26:33.960Z,47.53
2022-08-27T04:27:33.962Z,52.49
2022-08-27T04:28:38.246Z,52.07
2022-08-27T04:29:33.941Z,45.46
2022-08-27T04:30:33.924Z,47.14
2022-08-27T04:31:33.942Z,51.14
2022-08-27T04:32:33.921Z,48.16
2022-08-27T04:33:33.890Z,42.54
2022-08-27T04:34:33.878Z,48.52
2022-08-27T04:35:33.871Z,47.39
2022-08-27T04:36:33.865Z,52.70
2022-08-27T04:37:33.867Z,47.71
2022-08-27T04:38:33.847Z,41.43
2022-08-27T04:39:33.830Z,41.32
2022-08-27T04:40:33.937Z,41.17
2022-08-27T04:41:33.810Z,41.06
2022-08-27T04:42:33.825Z,41.12
2022-08-27T04:43:33.798Z,43.44
2022-08-27T04:44:33.793Z,50.31
2022-08-27T04:45:33.811Z,52.15
2022-08-27T04:46:33.865Z,45.90
2022-08-27T04:47:33.780Z,42.77
2022-08-27T04:48:33.756Z,46.83
2022-08-27T04:49:33.757Z,41.40
2022-08-27T04:50:33.728Z,41.95
2022-08-27T04:51:33.720Z,42.21
2022-08-27T04:52:33.725Z,42.55
2022-08-27T04:53:34.699Z,46.37
2022-08-27T04:54:33.693Z,46.87
2022-08-27T04:55:33.753Z,47.64
2022-08-27T04:56:33.679Z,41.68
2022-08-27T04:57:33.675Z,41.62
2022-08-27T04:58:33.650Z,48.86
2022-08-27T04:59:33.643Z,42.81
2022-08-27T05:00:33.851Z,43.14
2022-08-27T05:01:33.673Z,47.78
2022-08-27T05:02:33.621Z,43.55
2022-08-27T05:03:33.601Z,42.44
2022-08-27T05:04:33.879Z,48.64
2022-08-27T05:05:33.621Z,43.05
2022-08-27T05:06:33.568Z,46.18
2022-08-27T05:07:33.573Z,41.26
2022-08-27T05:08:33.550Z,46.21
2022-08-27T05:09:33.536Z,43.57
2022-08-27T05:10:33.533Z,40.78
2022-08-27T05:11:33.525Z,45.94
2022-08-27T05:12:33.529Z,45.93
2022-08-27T05:13:33.515Z,48.38
2022-08-27T05:14:33.505Z,45.71
2022-08-27T05:15:33.563Z,41.54
2022-08-27T05:16:33.482Z,42.74
2022-08-27T05:17:33.477Z,48.49
2022-08-27T05:18:37.613Z,42.04
2022-08-27T05:19:34.448Z,42.63
2022-08-27T05:20:33.541Z,48.74
2022-08-27T05:21:33.443Z,46.81
2022-08-27T05:22:33.431Z,48.67
2022-08-27T05:23:33.416Z,43.08
2022-08-27T05:24:33.396Z,46.49
2022-08-27T05:25:33.431Z,48.13
2022-08-27T05:26:33.564Z,46.98
2022-08-27T05:27:33.372Z,49.07
2022-08-27T05:28:33.375Z,47.21
2022-08-27T05:29:33.355Z,48.76
2022-08-27T05:30:33.347Z,53.40
2022-08-27T05:31:33.381Z,49.64
2022-08-27T05:32:33.334Z,47.73
2022-08-27T05:33:33.319Z,42.85
2022-08-27T05:34:33.313Z,46.75
2022-08-27T05:35:33.293Z,48.20
2022-08-27T05:36:33.283Z,51.26
2022-08-27T05:37:33.291Z,51.56
2022-08-27T05:38:33.263Z,47.96
2022-08-27T05:39:33.262Z,47.74
2022-08-27T05:40:33.267Z,50.93
2022-08-27T05:41:34.170Z,47.78
2022-08-27T05:42:33.241Z,47.44
2022-08-27T05:43:33.462Z,46.66
2022-08-27T05:44:41.553Z,51.81
2022-08-27T05:45:34.201Z,52.51
2022-08-27T05:46:33.250Z,46.24
2022-08-27T05:47:33.200Z,46.57
2022-08-27T05:48:33.172Z,47.50
2022-08-27T05:49:33.167Z,47.84
2022-08-27T05:50:33.151Z,49.37
2022-08-27T05:51:33.142Z,47.66
2022-08-27T05:52:33.129Z,50.30
2022-08-27T05:53:33.140Z,50.26
2022-08-27T05:54:33.116Z,48.16
2022-08-27T05:55:33.328Z,53.14
2022-08-27T05:56:33.095Z,51.08
2022-08-27T05:57:33.089Z,50.82
2022-08-27T05:58:33.090Z,52.31
2022-08-27T05:59:34.939Z,48.08
2022-08-27T06:00:33.058Z,51.20
2022-08-27T06:01:33.054Z,48.31
2022-08-27T06:02:33.084Z,48.16
2022-08-27T06:03:33.285Z,52.76
2022-08-27T06:04:33.037Z,50.74
2022-08-27T06:05:33.043Z,48.44
2022-08-27T06:06:33.004Z,48.41
2022-08-27T06:07:32.994Z,51.78
2022-08-27T06:08:32.990Z,48.70
2022-08-27T06:09:32.968Z,49.12
2022-08-27T06:10:32.956Z,49.68
2022-08-27T06:11:32.955Z,52.49
2022-08-27T06:12:32.941Z,46.49
2022-08-27T06:13:33.211Z,46.55
2022-08-27T06:14:32.966Z,49.01
2022-08-27T06:15:32.936Z,49.27
2022-08-27T06:16:32.895Z,48.15
2022-08-27T06:17:32.896Z,44.36
2022-08-27T06:18:32.899Z,49.81
2022-08-27T06:19:32.873Z,47.07
2022-08-27T06:20:32.864Z,48.37
2022-08-27T06:21:32.860Z,44.03
2022-08-27T06:22:33.021Z,52.22
2022-08-27T06:23:32.851Z,47.70
2022-08-27T06:24:32.825Z,47.64
2022-08-27T06:25:32.810Z,54.70
2022-08-27T06:26:32.804Z,44.63
2022-08-27T06:27:32.797Z,48.53
2022-08-27T06:28:32.795Z,46.71
2022-08-27T06:29:32.777Z,47.00
2022-08-27T06:30:32.760Z,50.14
2022-08-27T06:31:32.786Z,53.42
2022-08-27T06:32:32.741Z,50.50
2022-08-27T06:33:33.020Z,52.15
2022-08-27T06:34:32.801Z,45.88
2022-08-27T06:35:34.086Z,49.47
2022-08-27T06:36:32.702Z,50.88
2022-08-27T06:37:32.702Z,50.12
2022-08-27T06:38:32.699Z,55.61
2022-08-27T06:39:32.686Z,48.00
2022-08-27T06:40:32.722Z,53.23
2022-08-27T06:41:32.656Z,49.80
2022-08-27T06:42:32.645Z,49.83
2022-08-27T06:43:32.659Z,46.38
2022-08-27T06:44:32.618Z,53.49
2022-08-27T06:45:32.728Z,50.87
2022-08-27T06:46:32.726Z,52.69
2022-08-27T06:47:32.600Z,51.68
2022-08-27T06:48:32.600Z,53.87
2022-08-27T06:49:32.579Z,47.40
2022-08-27T06:50:32.566Z,48.73
2022-08-27T06:51:32.561Z,51.08
2022-08-27T06:52:32.549Z,52.92
2022-08-27T06:53:32.554Z,50.34
2022-08-27T06:54:32.528Z,52.49
2022-08-27T06:55:36.748Z,50.46
2022-08-27T06:56:32.518Z,46.94
2022-08-27T06:57:32.508Z,45.05
2022-08-27T06:58:32.505Z,51.85
2022-08-27T06:59:32.482Z,52.21
2022-08-27T07:00:32.470Z,48.53
2022-08-27T07:01:32.526Z,46.26
2022-08-27T07:02:32.525Z,49.46
2022-08-27T07:03:32.458Z,48.96
2022-08-27T07:04:32.989Z,50.51
2022-08-27T07:05:32.429Z,52.58
2022-08-27T07:06:32.414Z,47.22
2022-08-27T07:07:38.160Z,42.71
2022-08-27T07:08:33.410Z,46.15
2022-08-27T07:09:32.418Z,50.77
2022-08-27T07:10:32.376Z,48.85
2022-08-27T07:11:32.371Z,53.27
2022-08-27T07:12:32.353Z,50.88
2022-08-27T07:13:32.364Z,45.77
2022-08-27T07:14:37.094Z,50.65
2022-08-27T07:15:33.367Z,47.21
2022-08-27T07:16:32.327Z,46.67
2022-08-27T07:17:32.315Z,52.59
2022-08-27T07:18:32.317Z,46.59
2022-08-27T07:19:32.363Z,45.89
2022-08-27T07:20:32.282Z,47.19
2022-08-27T07:21:32.293Z,45.16
2022-08-27T07:22:32.257Z,55.53
2022-08-27T07:23:32.270Z,49.71
2022-08-27T07:24:32.246Z,49.46
2022-08-27T07:25:32.237Z,46.79
2022-08-27T07:26:32.222Z,55.42
2022-08-27T07:27:32.217Z,52.03
2022-08-27T07:28:32.211Z,43.94
2022-08-27T07:29:32.476Z,49.63
2022-08-27T07:30:32.209Z,47.18
2022-08-27T07:31:32.174Z,48.91
2022-08-27T07:32:32.167Z,52.01
2022-08-27T07:33:32.182Z,52.72
2022-08-27T07:34:32.149Z,48.44
2022-08-27T07:35:32.140Z,46.52
2022-08-27T07:36:32.125Z,47.74
2022-08-27T07:37:32.592Z,49.79
2022-08-27T07:38:32.129Z,54.27
2022-08-27T07:39:32.150Z,51.41
2022-08-27T07:40:32.131Z,46.08
2022-08-27T07:41:32.246Z,56.39
2022-08-27T07:42:32.069Z,48.67
2022-08-27T07:43:32.064Z,51.25
2022-08-27T07:44:34.512Z,49.42
2022-08-27T07:45:32.039Z,50.51
2022-08-27T07:46:32.029Z,49.37
2022-08-27T07:47:32.027Z,48.91
2022-08-27T07:48:32.009Z,51.72
2022-08-27T07:49:32.014Z,50.94
2022-08-27T07:50:32.064Z,41.83
2022-08-27T07:51:31.983Z,44.92
2022-08-27T07:52:31.972Z,52.29
2022-08-27T07:53:31.961Z,51.16
2022-08-27T07:54:31.964Z,50.76
2022-08-27T07:55:31.944Z,54.78
2022-08-27T07:56:31.924Z,48.67
2022-08-27T07:57:31.979Z,52.51
2022-08-27T07:58:31.909Z,49.01
2022-08-27T07:59:31.926Z,50.31
2022-08-27T08:00:31.898Z,47.60
2022-08-27T08:01:31.950Z,49.96
2022-08-27T08:02:32.099Z,50.57
2022-08-27T08:03:31.868Z,43.58
2022-08-27T08:04:31.866Z,54.14
2022-08-27T08:05:31.853Z,50.50
2022-08-27T08:06:31.833Z,54.33
2022-08-27T08:07:31.829Z,52.30
2022-08-27T08:08:31.826Z,46.68
2022-08-27T08:09:31.824Z,51.39
2022-08-27T08:10:35.399Z,52.17
2022-08-27T08:11:31.792Z,49.06
2022-08-27T08:12:31.780Z,49.05
2022-08-27T08:13:31.774Z,45.53
2022-08-27T08:14:31.775Z,47.53
2022-08-27T08:15:31.752Z,47.79
2022-08-27T08:16:31.964Z,48.52
2022-08-27T08:17:31.765Z,54.57
2022-08-27T08:18:31.720Z,53.90
2022-08-27T08:19:32.120Z,46.49
2022-08-27T08:20:56.465Z,49.67
2022-08-27T08:21:32.693Z,45.45
2022-08-27T08:22:31.679Z,49.38
2022-08-27T08:23:31.677Z,44.10
2022-08-27T08:24:31.677Z,53.34
2022-08-27T08:25:35.511Z,49.77
2022-08-27T08:26:32.646Z,47.06
2022-08-27T08:27:31.641Z,50.76
2022-08-27T08:28:31.623Z,52.05
2022-08-27T08:29:31.628Z,49.59
2022-08-27T08:30:35.547Z,52.77
2022-08-27T08:31:31.592Z,48.86
2022-08-27T08:32:31.584Z,46.74
2022-08-27T08:33:31.656Z,48.68
2022-08-27T08:34:31.576Z,48.03
2022-08-27T08:35:33.672Z,52.69
2022-08-27T08:36:31.543Z,51.55
2022-08-27T08:37:31.590Z,51.84
2022-08-27T08:38:31.526Z,52.87
2022-08-27T08:39:31.536Z,53.42
2022-08-27T08:40:31.541Z,51.49
2022-08-27T08:41:31.497Z,52.72
2022-08-27T08:42:31.490Z,53.58
2022-08-27T08:43:31.481Z,53.15
2022-08-27T08:44:31.488Z,45.79
2022-08-27T08:45:31.461Z,47.22
2022-08-27T08:46:31.492Z,47.80
2022-08-27T08:47:31.446Z,45.13
2022-08-27T08:48:31.424Z,49.57
2022-08-27T08:49:31.420Z,49.74
2022-08-27T08:50:31.504Z,50.87
2022-08-27T08:51:31.405Z,54.65
2022-08-27T08:52:32.067Z,51.73
2022-08-27T08:53:31.385Z,49.43
2022-08-27T08:54:31.371Z,49.45
2022-08-27T08:55:31.383Z,49.18
2022-08-27T08:56:31.352Z,46.11
2022-08-27T08:57:31.351Z,44.61
2022-08-27T08:58:31.333Z,52.84
2022-08-27T08:59:31.334Z,53.08
2022-08-27T09:00:31.330Z,61.61
2022-08-27T09:01:31.391Z,61.57
2022-08-27T09:02:31.297Z,59.86
2022-08-27T09:03:31.345Z,53.89
2022-08-27T09:04:31.280Z,51.19
2022-08-27T09:05:31.291Z,49.25
2022-08-27T09:06:31.260Z,52.18
2022-08-27T09:07:31.256Z,51.82
2022-08-27T09:08:36.424Z,50.49
2022-08-27T09:09:32.233Z,50.95
2022-08-27T09:10:31.237Z,47.84
2022-08-27T09:11:31.210Z,49.57
2022-08-27T09:12:32.047Z,51.71
2022-08-27T09:13:31.195Z,50.85
2022-08-27T09:14:31.192Z,55.25
2022-08-27T09:15:31.193Z,53.48
2022-08-27T09:16:31.252Z,50.80
2022-08-27T09:17:31.158Z,54.24
2022-08-27T09:18:31.149Z,51.50
2022-08-27T09:19:31.140Z,54.79
2022-08-27T09:20:31.164Z,52.87
2022-08-27T09:21:31.129Z,54.95
2022-08-27T09:22:31.165Z,51.07
2022-08-27T09:23:31.103Z,47.03
2022-08-27T09:24:31.166Z,51.83
2022-08-27T09:25:31.273Z,50.12
2022-08-27T09:26:31.081Z,50.54
2022-08-27T09:27:31.138Z,48.35
2022-08-27T09:28:31.068Z,51.19
2022-08-27T09:29:31.041Z,53.51
2022-08-27T09:30:31.165Z,48.41
2022-08-27T09:31:31.026Z,49.77
2022-08-27T09:32:31.017Z,53.65
2022-08-27T09:33:44.501Z,53.59
2022-08-27T09:34:32.009Z,45.15
2022-08-27T09:35:31.001Z,45.35
2022-08-27T09:36:31.017Z,52.81
2022-08-27T09:37:34.192Z,49.30
2022-08-27T09:38:33.600Z,52.20
2022-08-27T09:39:30.946Z,47.75
2022-08-27T09:40:30.992Z,54.28
2022-08-27T09:41:30.929Z,51.65
2022-08-27T09:42:30.918Z,53.42
2022-08-27T09:43:30.971Z,46.18
2022-08-27T09:44:30.900Z,54.74
2022-08-27T09:45:30.974Z,49.62
2022-08-27T09:46:30.887Z,50.37
2022-08-27T09:47:30.867Z,49.09
2022-08-27T09:48:30.858Z,49.61
2022-08-27T09:49:30.837Z,49.56
2022-08-27T09:50:30.849Z,55.56
2022-08-27T09:51:30.826Z,46.68
2022-08-27T09:52:30.819Z,51.34
2022-08-27T09:53:30.802Z,46.29
2022-08-27T09:54:30.803Z,42.71
2022-08-27T09:55:30.804Z,46.04
2022-08-27T09:56:30.782Z,46.93
2022-08-27T09:57:30.876Z,55.16
2022-08-27T09:58:30.760Z,45.97
2022-08-27T09:59:30.779Z,50.70
2022-08-27T10:00:30.758Z,50.99
2022-08-27T10:01:30.825Z,48.41
2022-08-27T10:02:30.718Z,51.87
2022-08-27T10:03:33.453Z,47.95
2022-08-27T10:04:30.787Z,54.10
2022-08-27T10:05:30.702Z,43.77
2022-08-27T10:06:30.681Z,47.15
2022-08-27T10:07:30.666Z,45.61
2022-08-27T10:08:30.667Z,46.69
2022-08-27T10:09:30.646Z,53.43
2022-08-27T10:10:30.704Z,42.56
2022-08-27T10:11:30.631Z,46.39
2022-08-27T10:12:30.623Z,51.82
2022-08-27T10:13:30.618Z,49.63
2022-08-27T10:14:30.610Z,49.63
2022-08-27T10:15:30.597Z,51.05
2022-08-27T10:16:31.660Z,40.68
2022-08-27T10:17:30.573Z,52.15
2022-08-27T10:18:30.559Z,50.63
2022-08-27T10:19:30.549Z,48.30
2022-08-27T10:20:31.005Z,50.85
2022-08-27T10:21:30.569Z,44.92
2022-08-27T10:22:30.540Z,48.41
2022-08-27T10:23:30.510Z,43.52
2022-08-27T10:24:30.525Z,46.94
2022-08-27T10:25:30.492Z,40.87
2022-08-27T10:26:33.713Z,50.05
2022-08-27T10:27:30.478Z,49.19
2022-08-27T10:28:30.469Z,45.48
2022-08-27T10:29:30.449Z,47.30
2022-08-27T10:30:31.957Z,42.80
2022-08-27T10:31:30.507Z,50.14
2022-08-27T10:32:30.442Z,47.45
2022-08-27T10:33:30.412Z,45.83
2022-08-27T10:34:30.406Z,44.99
2022-08-27T10:35:30.397Z,50.69
2022-08-27T10:36:30.400Z,51.06
2022-08-27T10:37:36.603Z,43.53
2022-08-27T10:38:31.372Z,46.75
2022-08-27T10:39:30.393Z,42.81
2022-08-27T10:40:30.393Z,52.52
2022-08-27T10:41:30.342Z,46.88
2022-08-27T10:42:30.324Z,50.60
2022-08-27T10:43:30.322Z,49.12
2022-08-27T10:44:30.302Z,51.76
2022-08-27T10:45:31.433Z,48.33
2022-08-27T10:46:30.382Z,50.83
2022-08-27T10:47:30.281Z,49.91
2022-08-27T10:48:30.268Z,49.28
2022-08-27T10:49:30.254Z,46.47
2022-08-27T10:50:30.247Z,51.91
2022-08-27T10:51:30.303Z,48.31
2022-08-27T10:52:30.379Z,50.68
2022-08-27T10:53:30.388Z,52.07
2022-08-27T10:54:30.365Z,50.26
2022-08-27T10:55:30.339Z,46.86
2022-08-27T10:56:30.339Z,45.97
2022-08-27T10:57:51.663Z,41.96
2022-08-27T10:58:31.229Z,54.17
2022-08-27T10:59:30.366Z,52.82
2022-08-27T11:00:30.240Z,54.87
2022-08-27T11:01:30.259Z,53.08
2022-08-27T11:02:30.258Z,50.39
2022-08-27T11:03:33.342Z,51.46
2022-08-27T11:04:30.177Z,52.73
2022-08-27T11:05:30.156Z,50.24
2022-08-27T11:06:30.163Z,51.14
2022-08-27T11:07:30.074Z,54.89
2022-08-27T11:08:30.068Z,51.74
2022-08-27T11:09:30.063Z,46.36
2022-08-27T11:10:30.071Z,47.68
2022-08-27T11:12:12.353Z,51.27
2022-08-27T11:12:31.032Z,53.81
2022-08-27T11:13:30.015Z,52.06
2022-08-27T11:14:30.008Z,51.94
2022-08-27T11:15:29.998Z,49.20
2022-08-27T11:16:30.029Z,53.56
2022-08-27T11:17:32.208Z,51.72
2022-08-27T11:18:29.995Z,49.06
2022-08-27T11:19:29.961Z,49.21
2022-08-27T11:20:29.954Z,48.36
2022-08-27T11:21:29.954Z,50.62
2022-08-27T11:22:29.931Z,51.04
2022-08-27T11:23:29.927Z,52.50
2022-08-27T11:24:34.379Z,53.43
2022-08-27T11:25:30.895Z,48.06
2022-08-27T11:26:29.994Z,51.96
2022-08-27T11:27:29.879Z,50.09
2022-08-27T11:28:30.418Z,49.10
2022-08-27T11:29:30.583Z,53.38
2022-08-27T11:30:29.883Z,54.64
2022-08-27T11:31:29.924Z,48.70
2022-08-27T11:32:29.841Z,52.78
2022-08-27T11:33:29.823Z,53.64
2022-08-27T11:34:29.864Z,49.51
2022-08-27T11:35:29.834Z,49.85
2022-08-27T11:36:29.819Z,51.18
2022-08-27T11:37:29.789Z,50.88
2022-08-27T11:38:29.777Z,53.81
2022-08-27T11:39:29.767Z,55.58
2022-08-27T11:40:29.796Z,48.18
2022-08-27T11:41:29.765Z,51.68
2022-08-27T11:42:30.743Z,49.88
2022-08-27T11:43:29.732Z,53.67
2022-08-27T11:44:29.719Z,52.67
2022-08-27T11:45:29.713Z,52.02
2022-08-27T11:46:29.740Z,51.91
2022-08-27T11:47:29.694Z,52.84
2022-08-27T11:48:29.711Z,55.44
2022-08-27T11:49:29.673Z,52.30
2022-08-27T11:50:29.669Z,53.87
2022-08-27T11:51:29.669Z,50.06
2022-08-27T11:52:29.643Z,48.48
2022-08-27T11:53:29.632Z,47.11
2022-08-27T11:54:29.620Z,49.72
2022-08-27T11:55:29.607Z,52.53
2022-08-27T11:56:29.615Z,53.14
2022-08-27T11:57:29.637Z,48.96
2022-08-27T11:58:29.580Z,50.24
2022-08-27T11:59:29.570Z,51.72
2022-08-27T12:00:29.565Z,47.87
2022-08-27T12:01:29.559Z,51.49
2022-08-27T12:02:29.577Z,51.18
2022-08-27T12:03:29.556Z,47.09
2022-08-27T12:04:29.554Z,47.80
2022-08-27T12:05:29.508Z,49.73
2022-08-27T12:06:29.517Z,50.12
2022-08-27T12:07:29.490Z,50.40
2022-08-27T12:08:29.486Z,49.73
2022-08-27T12:09:29.466Z,50.35
2022-08-27T12:10:29.463Z,51.09
2022-08-27T12:11:29.462Z,54.92
2022-08-27T12:12:29.443Z,50.96
2022-08-27T12:13:29.434Z,52.06
2022-08-27T12:14:29.425Z,50.28
2022-08-27T12:15:33.229Z,52.46
2022-08-27T12:16:30.454Z,49.67
2022-08-27T12:17:29.388Z,52.74
2022-08-27T12:18:29.385Z,52.22
2022-08-27T12:19:29.380Z,50.79
2022-08-27T12:20:29.367Z,49.64
2022-08-27T12:21:29.367Z,50.58
2022-08-27T12:22:29.346Z,49.45
2022-08-27T12:23:29.335Z,46.71
2022-08-27T12:24:29.329Z,48.26
2022-08-27T12:25:29.312Z,50.98
2022-08-27T12:26:29.314Z,49.24
2022-08-27T12:27:29.295Z,49.96
2022-08-27T12:28:29.288Z,49.61
2022-08-27T12:29:29.322Z,51.59
2022-08-27T12:30:29.267Z,49.88
2022-08-27T12:31:29.311Z,46.68
2022-08-27T12:32:29.251Z,50.88
2022-08-27T12:33:29.245Z,49.93
2022-08-27T12:34:29.335Z,48.61
2022-08-27T12:35:29.326Z,50.22
2022-08-27T12:36:29.387Z,54.20
2022-08-27T12:37:29.338Z,49.94
2022-08-27T12:38:29.274Z,46.32
2022-08-27T12:39:29.385Z,50.53
2022-08-27T12:40:29.258Z,51.43
2022-08-27T12:41:29.182Z,52.85
2022-08-27T12:42:29.159Z,46.78
2022-08-27T12:43:29.146Z,46.14
2022-08-27T12:44:29.146Z,47.69
2022-08-27T12:45:29.135Z,46.27
2022-08-27T12:46:29.799Z,45.98
2022-08-27T12:47:29.107Z,48.11
2022-08-27T12:48:29.109Z,52.20
2022-08-27T12:49:38.363Z,52.13
2022-08-27T12:50:30.161Z,47.16
2022-08-27T12:51:29.089Z,52.34
2022-08-27T12:52:29.100Z,47.86